ASP weather

Alice Springs Airport
Alice Springs, Northern Territory, Australia

Public forecast

Using degrees Celsius for public forecast. Weather courtesy of forecast.io.

METAR (pilot weather report)

Retrieved 2019/03/23 06:00 UTC (5 minutes ago):

YBAS 230600Z AUTO 08011KT 050V120 9999 // NCD 38/06 Q1007 RF00.0/000.0

TAF (pilot weather forecast)

Retrieved 2019/03/23 06:00 UTC (5 minutes ago):

TAF YBAS 230529Z 2306/2406 08012KT CAVOK FM230900 06008KT CAVOK FM232300 07012KT CAVOK